createdAt,value
2019-01-09T00:00:09.993Z,1.6
2019-01-09T00:00:22.377Z,1.6
2019-01-09T00:00:34.743Z,1.6
2019-01-09T00:00:47.107Z,1.6
2019-01-09T00:00:59.617Z,1.6
2019-01-09T00:01:11.973Z,1.6
2019-01-09T00:01:24.360Z,1.6
2019-01-09T00:01:36.733Z,1.6
2019-01-09T00:01:49.105Z,1.6
2019-01-09T00:02:01.574Z,1.6
2019-01-09T00:02:13.926Z,1.6
2019-01-09T00:02:26.295Z,1.6
2019-01-09T00:02:38.650Z,1.6
2019-01-09T00:02:51.168Z,1.6
2019-01-09T00:03:03.786Z,1.6
2019-01-09T00:03:16.227Z,1.6
2019-01-09T00:03:28.586Z,1.6
2019-01-09T00:03:41.006Z,1.6
2019-01-09T00:03:53.469Z,0.7
2019-01-09T00:04:05.881Z,0.7
2019-01-09T00:04:18.213Z,0.7
2019-01-09T00:04:30.728Z,0.7
2019-01-09T00:04:43.080Z,0.7
2019-01-09T00:04:55.527Z,0.7
2019-01-09T00:05:08.019Z,0.7
2019-01-09T00:05:28.224Z,0.7
2019-01-09T00:05:40.781Z,0.7
2019-01-09T00:05:53.345Z,0.7
2019-01-09T00:06:05.709Z,0.7
2019-01-09T00:06:18.071Z,0.7
2019-01-09T00:06:30.520Z,0.7
2019-01-09T00:06:42.878Z,0.7
2019-01-09T00:06:55.242Z,0.7
2019-01-09T00:07:07.709Z,0.7
2019-01-09T00:07:20.075Z,0.7
2019-01-09T00:07:32.528Z,0.7
2019-01-09T00:07:44.925Z,0.7
2019-01-09T00:07:57.290Z,0.7
2019-01-09T00:08:09.707Z,0.7
2019-01-09T00:08:22.062Z,0.7
2019-01-09T00:08:36.162Z,0.7
2019-01-09T00:08:48.603Z,0.7
2019-01-09T00:09:00.967Z,0.7
2019-01-09T00:09:13.481Z,0.7
2019-01-09T00:09:25.851Z,0.7
2019-01-09T00:09:38.229Z,0.7
2019-01-09T00:09:50.593Z,0.7
2019-01-09T00:10:02.979Z,0.7
2019-01-09T00:10:15.327Z,0.7
2019-01-09T00:10:27.856Z,0.7
2019-01-09T00:10:40.371Z,0.7
2019-01-09T00:10:52.835Z,0.7
2019-01-09T00:11:05.199Z,0.7
2019-01-09T00:11:17.592Z,0.7
2019-01-09T00:11:30.188Z,0.7
2019-01-09T00:11:42.536Z,0.7
2019-01-09T00:11:55.002Z,0.7
2019-01-09T00:12:07.356Z,0.7
2019-01-09T00:12:19.715Z,0.7
2019-01-09T00:12:32.122Z,0.7
2019-01-09T00:12:44.636Z,0.7
2019-01-09T00:12:56.983Z,0.7
2019-01-09T00:13:09.369Z,0.7
2019-01-09T00:13:21.742Z,0.7
2019-01-09T00:13:34.135Z,0.7
2019-01-09T00:13:46.584Z,0.81
2019-01-09T00:13:58.935Z,0.81
2019-01-09T00:14:11.320Z,0.81
2019-01-09T00:14:23.676Z,0.81
2019-01-09T00:14:36.022Z,0.81
2019-01-09T00:14:48.447Z,0.81
2019-01-09T00:15:00.809Z,0.81
2019-01-09T00:15:14.632Z,0.81
2019-01-09T00:15:26.987Z,0.81
2019-01-09T00:15:39.350Z,0.81
2019-01-09T00:15:51.721Z,0.81
2019-01-09T00:16:04.082Z,0.81
2019-01-09T00:16:16.439Z,0.81
2019-01-09T00:16:28.803Z,0.81
2019-01-09T00:16:41.141Z,0.81
2019-01-09T00:16:53.486Z,0.81
2019-01-09T00:17:06.106Z,0.81
2019-01-09T00:17:18.463Z,0.81
2019-01-09T00:17:30.817Z,0.81
2019-01-09T00:17:43.169Z,0.81
2019-01-09T00:17:55.626Z,0.81
2019-01-09T00:18:07.970Z,0.81
2019-01-09T00:18:20.330Z,0.81
2019-01-09T00:18:32.684Z,0.81
2019-01-09T00:18:45.321Z,0.81
2019-01-09T00:18:57.678Z,0.81
2019-01-09T00:19:10.049Z,0.81
2019-01-09T00:19:22.415Z,0.81
2019-01-09T00:19:34.796Z,0.81
2019-01-09T00:19:47.155Z,0.81
2019-01-09T00:19:59.534Z,0.81
2019-01-09T00:20:11.913Z,0.81
2019-01-09T00:20:24.353Z,0.81
2019-01-09T00:20:36.690Z,0.81
2019-01-09T00:20:49.045Z,0.81
2019-01-09T00:21:01.414Z,0.81
2019-01-09T00:21:13.762Z,0.81
2019-01-09T00:21:26.126Z,0.81
2019-01-09T00:21:38.499Z,0.81
2019-01-09T00:21:50.850Z,0.81
2019-01-09T00:22:03.207Z,0.81
2019-01-09T00:22:15.640Z,0.81
2019-01-09T00:22:27.990Z,0.81
2019-01-09T00:22:40.362Z,0.81
2019-01-09T00:22:52.704Z,0.81
2019-01-09T00:23:05.099Z,0.81
2019-01-09T00:23:17.463Z,0.81
2019-01-09T00:23:29.803Z,0.81
2019-01-09T00:23:42.176Z,0.81
2019-01-09T00:23:54.544Z,0.98
2019-01-09T00:24:06.894Z,0.98
2019-01-09T00:24:19.260Z,0.98
2019-01-09T00:24:31.606Z,0.98
2019-01-09T00:24:43.977Z,0.98
2019-01-09T00:24:56.348Z,0.98
2019-01-09T00:25:08.713Z,0.98
2019-01-09T00:25:21.172Z,0.98
2019-01-09T00:25:33.550Z,0.98
2019-01-09T00:25:45.921Z,0.98
2019-01-09T00:25:58.278Z,0.98
2019-01-09T00:26:10.659Z,0.98
2019-01-09T00:26:23.119Z,0.98
2019-01-09T00:26:35.593Z,0.98
2019-01-09T00:26:47.968Z,0.98
2019-01-09T00:27:02.542Z,0.98
2019-01-09T00:27:14.899Z,0.98
2019-01-09T00:27:27.589Z,0.98
2019-01-09T00:27:39.943Z,0.98
2019-01-09T00:27:52.296Z,0.98
2019-01-09T00:28:04.695Z,0.98
2019-01-09T00:28:17.077Z,0.98
2019-01-09T00:28:29.421Z,0.98
2019-01-09T00:28:41.838Z,0.98
2019-01-09T00:28:54.210Z,0.98
2019-01-09T00:29:06.557Z,0.98
2019-01-09T00:29:18.895Z,0.98
2019-01-09T00:29:31.283Z,0.98
2019-01-09T00:29:43.622Z,0.98
2019-01-09T00:29:56.004Z,0.98
2019-01-09T00:30:08.379Z,0.98
2019-01-09T00:30:20.804Z,0.98
2019-01-09T00:30:33.166Z,0.98
2019-01-09T00:30:45.523Z,0.98
2019-01-09T00:30:57.876Z,0.98
2019-01-09T00:31:10.294Z,0.98
2019-01-09T00:31:22.631Z,0.98
2019-01-09T00:31:34.985Z,0.98
2019-01-09T00:31:47.332Z,0.98
2019-01-09T00:31:59.702Z,0.98
2019-01-09T00:32:12.164Z,0.98
2019-01-09T00:32:24.539Z,0.98
2019-01-09T00:32:36.900Z,0.98
2019-01-09T00:32:49.488Z,0.98
2019-01-09T00:33:01.851Z,0.98
2019-01-09T00:33:14.218Z,0.98
2019-01-09T00:33:26.594Z,0.98
2019-01-09T00:33:38.958Z,0.98
2019-01-09T00:33:51.315Z,1.14
2019-01-09T00:34:03.679Z,1.14
2019-01-09T00:34:16.046Z,1.14
2019-01-09T00:34:28.393Z,1.14
2019-01-09T00:34:40.755Z,1.14
2019-01-09T00:34:53.101Z,1.14
2019-01-09T00:35:05.467Z,1.14
2019-01-09T00:35:17.898Z,1.14
2019-01-09T00:35:38.306Z,1.14
2019-01-09T00:35:50.668Z,1.14
2019-01-09T00:36:03.017Z,1.14
2019-01-09T00:36:15.385Z,1.14
2019-01-09T00:36:27.839Z,1.14
2019-01-09T00:36:40.617Z,1.14
2019-01-09T00:36:52.986Z,1.14
2019-01-09T00:37:05.331Z,1.14
2019-01-09T00:37:17.919Z,1.14
2019-01-09T00:37:30.277Z,1.14
2019-01-09T00:37:42.705Z,1.14
2019-01-09T00:37:55.063Z,1.14
2019-01-09T00:38:07.422Z,1.14
2019-01-09T00:38:19.772Z,1.14
2019-01-09T00:38:32.133Z,1.14
2019-01-09T00:38:46.439Z,1.14
2019-01-09T00:38:58.812Z,1.14
2019-01-09T00:39:11.163Z,1.14
2019-01-09T00:39:23.516Z,1.14
2019-01-09T00:39:35.930Z,1.14
2019-01-09T00:39:48.308Z,1.14
2019-01-09T00:40:00.651Z,1.14
2019-01-09T00:40:12.994Z,1.14
2019-01-09T00:40:25.823Z,1.14
2019-01-09T00:40:38.222Z,1.14
2019-01-09T00:40:50.686Z,1.14
2019-01-09T00:41:03.050Z,1.14
2019-01-09T00:41:15.501Z,1.14
2019-01-09T00:41:27.985Z,1.14
2019-01-09T00:41:40.485Z,1.14
2019-01-09T00:41:52.837Z,1.14
2019-01-09T00:42:05.182Z,1.14
2019-01-09T00:42:17.532Z,1.14
2019-01-09T00:42:29.890Z,1.14
2019-01-09T00:42:42.242Z,1.14
2019-01-09T00:42:54.628Z,1.14
2019-01-09T00:43:06.988Z,1.14
2019-01-09T00:43:19.335Z,1.14
2019-01-09T00:43:31.695Z,1.14
2019-01-09T00:43:44.129Z,1.14
2019-01-09T00:43:56.528Z,0.67
2019-01-09T00:44:08.967Z,0.67
2019-01-09T00:44:21.325Z,0.67
2019-01-09T00:44:33.896Z,0.67
2019-01-09T00:44:46.352Z,0.67
2019-01-09T00:44:58.796Z,0.67
2019-01-09T00:45:11.153Z,0.67
2019-01-09T00:45:23.534Z,0.67
2019-01-09T00:45:36.030Z,0.67
2019-01-09T00:45:48.406Z,0.67
2019-01-09T00:46:00.821Z,0.67
2019-01-09T00:46:13.190Z,0.67
2019-01-09T00:46:25.900Z,0.67
2019-01-09T00:46:38.257Z,0.67
2019-01-09T00:46:50.597Z,0.67
2019-01-09T00:47:02.944Z,0.67
2019-01-09T00:47:15.386Z,0.67
2019-01-09T00:47:27.865Z,0.67
2019-01-09T00:47:40.443Z,0.67
2019-01-09T00:47:52.953Z,0.67
2019-01-09T00:48:05.319Z,0.67
2019-01-09T00:48:17.674Z,0.67
2019-01-09T00:48:30.106Z,0.67
2019-01-09T00:48:42.467Z,0.67
2019-01-09T00:48:54.836Z,0.67
2019-01-09T00:49:07.186Z,0.67
2019-01-09T00:49:19.591Z,0.67
2019-01-09T00:49:31.951Z,0.67
2019-01-09T00:49:44.302Z,0.67
2019-01-09T00:49:56.672Z,0.67
2019-01-09T00:50:09.069Z,0.67
2019-01-09T00:50:21.639Z,0.67
2019-01-09T00:50:34.002Z,0.67
2019-01-09T00:50:46.369Z,0.67
2019-01-09T00:51:03.772Z,0.67
2019-01-09T00:51:16.117Z,0.67
2019-01-09T00:51:28.529Z,0.67
2019-01-09T00:51:40.897Z,0.67
2019-01-09T00:51:53.239Z,0.67
2019-01-09T00:52:05.584Z,0.67
2019-01-09T00:52:17.931Z,0.67
2019-01-09T00:52:30.274Z,0.67
2019-01-09T00:52:42.625Z,0.67
2019-01-09T00:52:55.249Z,0.67
2019-01-09T00:53:07.756Z,0.67
2019-01-09T00:53:20.120Z,0.67
2019-01-09T00:53:32.501Z,0.67
2019-01-09T00:53:44.853Z,0.67
2019-01-09T00:53:57.202Z,2.03
2019-01-09T00:54:09.567Z,2.03
2019-01-09T00:54:21.908Z,2.03
2019-01-09T00:54:34.275Z,2.03
2019-01-09T00:54:46.647Z,2.03
2019-01-09T00:54:59.082Z,2.03
2019-01-09T00:55:11.442Z,2.03
2019-01-09T00:55:23.790Z,2.03
2019-01-09T00:55:36.152Z,2.03
2019-01-09T00:55:48.604Z,2.03
2019-01-09T00:56:00.959Z,2.03
2019-01-09T00:56:13.336Z,2.03
2019-01-09T00:56:25.746Z,2.03
2019-01-09T00:56:38.092Z,2.03
2019-01-09T00:56:50.441Z,2.03
2019-01-09T00:57:02.778Z,2.03
2019-01-09T00:57:15.133Z,2.03
2019-01-09T00:57:27.624Z,2.03
2019-01-09T00:57:40.074Z,2.03
2019-01-09T00:57:52.425Z,2.03
2019-01-09T00:58:04.794Z,2.03
2019-01-09T00:58:17.208Z,2.03
2019-01-09T00:58:29.571Z,2.03
2019-01-09T00:58:41.916Z,2.03
2019-01-09T00:58:54.278Z,2.03
2019-01-09T00:59:06.643Z,2.03
2019-01-09T00:59:18.978Z,2.03
2019-01-09T00:59:31.968Z,2.03
2019-01-09T00:59:44.298Z,2.03
2019-01-09T00:59:56.666Z,2.03
2019-01-09T01:00:09.145Z,2.03
2019-01-09T01:00:21.554Z,2.03
2019-01-09T01:00:33.921Z,2.03
2019-01-09T01:00:46.281Z,2.03
2019-01-09T01:00:58.646Z,2.03
2019-01-09T01:01:11.033Z,2.03
2019-01-09T01:01:23.409Z,2.03
2019-01-09T01:01:35.890Z,2.03
2019-01-09T01:01:48.235Z,2.03
2019-01-09T01:02:00.610Z,2.03
2019-01-09T01:02:12.965Z,2.03
2019-01-09T01:02:25.312Z,2.03
2019-01-09T01:02:37.651Z,2.03
2019-01-09T01:02:50.013Z,2.03
2019-01-09T01:03:02.440Z,2.03
2019-01-09T01:03:14.808Z,2.03
2019-01-09T01:03:27.152Z,2.03
2019-01-09T01:03:39.491Z,2.03
2019-01-09T01:03:54.077Z,2.03
2019-01-09T01:04:06.543Z,2.03
2019-01-09T01:04:18.920Z,2.03
2019-01-09T01:04:31.274Z,2.03
2019-01-09T01:04:43.786Z,2.03
2019-01-09T01:04:56.242Z,2.03
2019-01-09T01:05:08.730Z,2.03
2019-01-09T01:05:21.112Z,2.03
2019-01-09T01:05:33.464Z,2.03
2019-01-09T01:05:53.844Z,2.03
2019-01-09T01:06:06.195Z,2.03
2019-01-09T01:06:18.625Z,2.03
2019-01-09T01:06:30.986Z,2.03
2019-01-09T01:06:43.359Z,2.03
2019-01-09T01:06:55.698Z,2.03
2019-01-09T01:07:08.063Z,2.03
2019-01-09T01:07:20.500Z,2.03
2019-01-09T01:07:32.873Z,2.03
2019-01-09T01:07:45.310Z,2.03
2019-01-09T01:07:57.688Z,2.03
2019-01-09T01:08:10.051Z,2.03
2019-01-09T01:08:22.398Z,2.03
2019-01-09T01:08:34.746Z,2.03
2019-01-09T01:08:47.098Z,2.03
2019-01-09T01:08:59.467Z,2.03
2019-01-09T01:09:12.158Z,2.03
2019-01-09T01:09:24.522Z,2.03
2019-01-09T01:09:36.890Z,2.03
2019-01-09T01:09:49.247Z,2.03
2019-01-09T01:10:01.598Z,2.03
2019-01-09T01:10:14.061Z,2.03
2019-01-09T01:10:26.420Z,2.03
2019-01-09T01:10:39.042Z,2.03
2019-01-09T01:10:51.401Z,2.03
2019-01-09T01:11:03.880Z,2.03
2019-01-09T01:11:16.226Z,2.03
2019-01-09T01:11:28.567Z,2.03
2019-01-09T01:11:40.911Z,2.03
2019-01-09T01:11:53.261Z,2.03
2019-01-09T01:12:05.594Z,2.03
2019-01-09T01:12:17.950Z,2.03
2019-01-09T01:12:30.415Z,2.03
2019-01-09T01:12:42.770Z,2.03
2019-01-09T01:12:55.213Z,2.03
2019-01-09T01:13:07.653Z,2.03
2019-01-09T01:13:20.197Z,2.03
2019-01-09T01:13:32.553Z,2.03
2019-01-09T01:13:44.920Z,2.03
2019-01-09T01:13:57.295Z,2.03
2019-01-09T01:14:09.672Z,2.03
2019-01-09T01:14:22.011Z,2.03
2019-01-09T01:14:34.446Z,2.03
2019-01-09T01:14:46.880Z,2.03
2019-01-09T01:14:59.219Z,2.03
2019-01-09T01:15:11.567Z,2.03
2019-01-09T01:15:23.902Z,2.03
2019-01-09T01:15:36.258Z,2.03
2019-01-09T01:15:48.610Z,2.03
2019-01-09T01:16:00.946Z,2.03
2019-01-09T01:16:13.380Z,0.64
2019-01-09T01:16:25.729Z,0.64
2019-01-09T01:16:38.086Z,0.64
2019-01-09T01:16:50.455Z,0.64
2019-01-09T01:17:02.840Z,0.64
2019-01-09T01:17:15.193Z,0.64
2019-01-09T01:17:27.536Z,0.64
2019-01-09T01:17:39.872Z,0.64
2019-01-09T01:17:52.234Z,0.64
2019-01-09T01:18:04.591Z,0.64
2019-01-09T01:18:16.994Z,0.64
2019-01-09T01:18:29.341Z,0.64
2019-01-09T01:18:41.834Z,0.64
2019-01-09T01:18:54.199Z,0.64
2019-01-09T01:19:06.571Z,0.64
2019-01-09T01:19:18.924Z,0.64
2019-01-09T01:19:31.287Z,0.64
2019-01-09T01:19:43.658Z,0.64
2019-01-09T01:19:56.100Z,0.64
2019-01-09T01:20:08.569Z,0.64
2019-01-09T01:20:20.969Z,0.64
2019-01-09T01:20:33.328Z,0.64
2019-01-09T01:20:45.939Z,0.64
2019-01-09T01:20:58.289Z,0.64
2019-01-09T01:21:10.638Z,0.64
2019-01-09T01:21:23.003Z,0.64
2019-01-09T01:21:35.395Z,0.64
2019-01-09T01:21:47.738Z,0.64
2019-01-09T01:22:00.088Z,0.64
2019-01-09T01:22:12.445Z,0.64
2019-01-09T01:22:24.882Z,0.64
2019-01-09T01:22:37.230Z,0.64
2019-01-09T01:22:49.584Z,0.64
2019-01-09T01:23:01.939Z,0.64
2019-01-09T01:23:14.528Z,0.64
2019-01-09T01:23:26.872Z,0.64
2019-01-09T01:23:39.299Z,0.64
2019-01-09T01:23:51.642Z,0.64
2019-01-09T01:24:04.010Z,0.64
2019-01-09T01:24:16.368Z,0.64
2019-01-09T01:24:28.722Z,0.64
2019-01-09T01:24:41.180Z,0.64
2019-01-09T01:24:53.515Z,0.64
2019-01-09T01:25:06.006Z,0.64
2019-01-09T01:25:18.372Z,0.64
2019-01-09T01:25:30.802Z,0.64
2019-01-09T01:25:43.164Z,0.64
2019-01-09T01:25:55.529Z,0.64
2019-01-09T01:26:07.892Z,0.64
2019-01-09T01:26:20.325Z,0.6
2019-01-09T01:26:32.702Z,0.6
2019-01-09T01:26:45.064Z,0.6
2019-01-09T01:26:57.419Z,0.6
2019-01-09T01:27:09.785Z,0.6
2019-01-09T01:27:22.200Z,0.6
2019-01-09T01:27:34.637Z,0.6
2019-01-09T01:27:47.006Z,0.6
2019-01-09T01:27:59.374Z,0.6
2019-01-09T01:28:11.759Z,0.6
2019-01-09T01:28:24.129Z,0.6
2019-01-09T01:28:37.714Z,0.6
2019-01-09T01:28:50.064Z,0.6
2019-01-09T01:29:02.493Z,0.6
2019-01-09T01:29:14.846Z,0.6
2019-01-09T01:29:27.222Z,0.6
2019-01-09T01:29:39.575Z,0.6
2019-01-09T01:29:51.924Z,0.6
2019-01-09T01:30:04.284Z,0.6
2019-01-09T01:30:16.635Z,0.6
2019-01-09T01:30:28.981Z,0.6
2019-01-09T01:30:41.326Z,0.6
2019-01-09T01:30:53.670Z,0.6
2019-01-09T01:31:06.106Z,0.6
2019-01-09T01:31:18.547Z,0.6
2019-01-09T01:31:30.900Z,0.6
2019-01-09T01:31:43.314Z,0.6
2019-01-09T01:31:55.670Z,0.6
2019-01-09T01:32:08.035Z,0.6
2019-01-09T01:32:20.384Z,0.6
2019-01-09T01:32:32.894Z,0.6
2019-01-09T01:32:45.529Z,0.6
2019-01-09T01:32:57.902Z,0.6
2019-01-09T01:33:10.256Z,0.6
2019-01-09T01:33:22.617Z,0.6
2019-01-09T01:33:35.037Z,0.6
2019-01-09T01:33:47.406Z,0.6
2019-01-09T01:33:59.761Z,0.6
2019-01-09T01:34:12.116Z,0.6
2019-01-09T01:34:24.487Z,0.6
2019-01-09T01:34:36.936Z,0.6
2019-01-09T01:34:49.288Z,0.6
2019-01-09T01:35:01.662Z,0.6
2019-01-09T01:35:14.013Z,0.6
2019-01-09T01:35:26.398Z,0.6
2019-01-09T01:35:38.756Z,0.6
2019-01-09T01:35:59.144Z,0.6
2019-01-09T01:36:11.510Z,0.6
2019-01-09T01:36:23.862Z,0.6
2019-01-09T01:36:36.349Z,0.47
2019-01-09T01:36:48.713Z,0.47
2019-01-09T01:37:01.100Z,0.47
2019-01-09T01:37:13.456Z,0.47
2019-01-09T01:37:25.944Z,0.47
2019-01-09T01:37:38.294Z,0.47
2019-01-09T01:37:50.635Z,0.47
2019-01-09T01:38:03.074Z,0.47
2019-01-09T01:38:15.445Z,0.47
2019-01-09T01:38:27.824Z,0.47
2019-01-09T01:38:40.176Z,0.47
2019-01-09T01:38:52.524Z,0.47
2019-01-09T01:39:05.054Z,0.47
2019-01-09T01:39:17.412Z,0.47
2019-01-09T01:39:29.845Z,0.47
2019-01-09T01:39:42.194Z,0.47
2019-01-09T01:39:54.557Z,0.47
2019-01-09T01:40:06.923Z,0.47
2019-01-09T01:40:19.436Z,0.47
2019-01-09T01:40:31.847Z,0.47
2019-01-09T01:40:44.344Z,0.47
2019-01-09T01:40:56.702Z,0.47
2019-01-09T01:41:09.261Z,0.47
2019-01-09T01:41:21.747Z,0.47
2019-01-09T01:41:34.102Z,0.47
2019-01-09T01:41:46.527Z,0.47
2019-01-09T01:41:59.017Z,0.47
2019-01-09T01:42:11.376Z,0.47
2019-01-09T01:42:23.740Z,0.47
2019-01-09T01:42:37.927Z,0.47
2019-01-09T01:42:50.292Z,0.47
2019-01-09T01:43:02.685Z,0.47
2019-01-09T01:43:15.067Z,0.47
2019-01-09T01:43:27.409Z,0.47
2019-01-09T01:43:39.756Z,0.47
2019-01-09T01:43:52.108Z,0.47
2019-01-09T01:44:04.465Z,0.47
2019-01-09T01:44:16.961Z,0.47
2019-01-09T01:44:29.433Z,0.47
2019-01-09T01:44:41.786Z,0.47
2019-01-09T01:44:54.187Z,0.47
2019-01-09T01:45:06.532Z,0.47
2019-01-09T01:45:18.978Z,0.47
2019-01-09T01:45:31.325Z,0.47
2019-01-09T01:45:43.758Z,0.47
2019-01-09T01:45:56.201Z,0.47
2019-01-09T01:46:08.545Z,0.47
2019-01-09T01:46:20.914Z,0.47
2019-01-09T01:46:33.276Z,0.47
2019-01-09T01:46:45.619Z,0.47
2019-01-09T01:46:57.977Z,2
2019-01-09T01:47:10.336Z,2
2019-01-09T01:47:22.874Z,2
2019-01-09T01:47:35.215Z,2
2019-01-09T01:47:47.732Z,2
2019-01-09T01:48:00.077Z,2
2019-01-09T01:48:12.430Z,2
2019-01-09T01:48:24.807Z,2
2019-01-09T01:48:37.157Z,2
2019-01-09T01:48:49.518Z,2
2019-01-09T01:49:01.888Z,2
2019-01-09T01:49:14.279Z,2
2019-01-09T01:49:26.711Z,2
2019-01-09T01:49:39.073Z,2
2019-01-09T01:49:51.423Z,2
2019-01-09T01:50:03.899Z,2
2019-01-09T01:50:16.521Z,2
2019-01-09T01:50:28.864Z,2
2019-01-09T01:50:41.308Z,2
2019-01-09T01:50:53.655Z,2
2019-01-09T01:51:06.025Z,2
2019-01-09T01:51:18.387Z,2
2019-01-09T01:51:30.752Z,2
2019-01-09T01:51:43.649Z,2
2019-01-09T01:51:56.008Z,2
2019-01-09T01:52:08.546Z,2
2019-01-09T01:52:20.942Z,2
2019-01-09T01:52:33.309Z,2
2019-01-09T01:52:45.726Z,2
2019-01-09T01:52:58.085Z,2
2019-01-09T01:53:10.771Z,2
2019-01-09T01:53:23.136Z,2
2019-01-09T01:53:35.491Z,2
2019-01-09T01:53:47.860Z,2
2019-01-09T01:54:00.312Z,2
2019-01-09T01:54:12.693Z,2
2019-01-09T01:54:25.051Z,2
2019-01-09T01:54:37.418Z,2
2019-01-09T01:54:49.788Z,2
2019-01-09T01:55:02.158Z,2
2019-01-09T01:55:14.521Z,2
2019-01-09T01:55:26.947Z,2
2019-01-09T01:55:39.469Z,2
2019-01-09T01:55:51.811Z,2
2019-01-09T01:56:04.247Z,2
2019-01-09T01:56:16.584Z,2
2019-01-09T01:56:28.939Z,2
2019-01-09T01:56:41.291Z,2
2019-01-09T01:56:53.651Z,2
2019-01-09T01:57:06.003Z,2
2019-01-09T01:57:18.381Z,0.65
2019-01-09T01:57:30.925Z,0.65
2019-01-09T01:57:43.283Z,0.65
2019-01-09T01:57:55.642Z,0.65
2019-01-09T01:58:08.099Z,0.65
2019-01-09T01:58:20.463Z,0.65
2019-01-09T01:58:32.800Z,0.65
2019-01-09T01:58:45.156Z,0.65
2019-01-09T01:58:57.523Z,0.65
2019-01-09T01:59:09.902Z,0.65
2019-01-09T01:59:22.273Z,0.65
2019-01-09T01:59:34.622Z,0.65
2019-01-09T01:59:46.973Z,0.65
2019-01-09T01:59:59.315Z,0.65
2019-01-09T02:00:11.698Z,0.65
2019-01-09T02:00:24.071Z,0.65
2019-01-09T02:00:36.449Z,0.65
2019-01-09T02:00:48.818Z,0.65
2019-01-09T02:01:01.200Z,0.65
2019-01-09T02:01:13.547Z,0.65
2019-01-09T02:01:25.916Z,0.65
2019-01-09T02:01:38.266Z,0.65
2019-01-09T02:01:50.625Z,0.65
2019-01-09T02:02:03.103Z,0.65
2019-01-09T02:02:15.460Z,0.65
2019-01-09T02:02:29.246Z,0.65
2019-01-09T02:02:41.617Z,0.65
2019-01-09T02:02:53.992Z,0.65
2019-01-09T02:03:06.604Z,0.65
2019-01-09T02:03:18.953Z,0.65
2019-01-09T02:03:31.314Z,0.65
2019-01-09T02:03:43.691Z,0.65
2019-01-09T02:03:56.150Z,0.65
2019-01-09T02:04:08.517Z,0.65
2019-01-09T02:04:20.879Z,0.65
2019-01-09T02:04:33.229Z,0.65
2019-01-09T02:04:45.606Z,0.65
2019-01-09T02:04:58.070Z,0.65
2019-01-09T02:05:10.581Z,0.65
2019-01-09T02:05:22.939Z,0.65
2019-01-09T02:05:35.315Z,0.65
2019-01-09T02:05:47.701Z,0.65
2019-01-09T02:06:09.243Z,0.65
2019-01-09T02:06:21.602Z,0.65
2019-01-09T02:06:33.964Z,0.65
2019-01-09T02:06:46.410Z,0.65
2019-01-09T02:06:58.757Z,0.65
2019-01-09T02:07:11.120Z,0.65
2019-01-09T02:07:23.483Z,0.65
2019-01-09T02:07:35.815Z,0.65
2019-01-09T02:07:48.174Z,0.65
2019-01-09T02:08:00.531Z,0.65
2019-01-09T02:08:12.893Z,0.65
2019-01-09T02:08:25.254Z,0.65
2019-01-09T02:08:37.624Z,0.65
2019-01-09T02:08:49.980Z,0.65
2019-01-09T02:09:02.565Z,0.65
2019-01-09T02:09:15.081Z,0.65
2019-01-09T02:09:27.545Z,0.65
2019-01-09T02:09:39.914Z,0.65
2019-01-09T02:09:52.283Z,0.65
2019-01-09T02:10:04.668Z,0.65
2019-01-09T02:10:17.016Z,0.65
2019-01-09T02:10:29.381Z,0.65
2019-01-09T02:10:41.902Z,0.65
2019-01-09T02:10:54.260Z,0.65
2019-01-09T02:11:06.607Z,0.65
2019-01-09T02:11:21.125Z,0.65
2019-01-09T02:11:33.486Z,0.65
2019-01-09T02:11:45.859Z,0.65
2019-01-09T02:11:58.210Z,0.65
2019-01-09T02:12:10.575Z,0.65
2019-01-09T02:12:22.949Z,0.65
2019-01-09T02:12:35.322Z,0.65
2019-01-09T02:12:47.674Z,0.65
2019-01-09T02:13:00.193Z,0.65
2019-01-09T02:13:12.565Z,0.65
2019-01-09T02:13:24.989Z,0.65
2019-01-09T02:13:37.345Z,0.65
2019-01-09T02:13:49.708Z,0.65
2019-01-09T02:14:02.057Z,0.65
2019-01-09T02:14:14.424Z,0.65
2019-01-09T02:14:26.781Z,0.65
2019-01-09T02:14:39.127Z,0.65
2019-01-09T02:14:51.486Z,0.65
2019-01-09T02:15:03.834Z,0.65
2019-01-09T02:15:16.201Z,0.65
2019-01-09T02:15:28.568Z,0.65
2019-01-09T02:15:40.925Z,0.65
2019-01-09T02:15:53.278Z,0.65
2019-01-09T02:16:05.634Z,0.65
2019-01-09T02:16:17.992Z,0.65
2019-01-09T02:16:30.357Z,0.65
2019-01-09T02:16:42.703Z,0.65
2019-01-09T02:16:55.060Z,0.65
2019-01-09T02:17:07.504Z,0.65
2019-01-09T02:17:19.876Z,0.65
2019-01-09T02:17:32.315Z,0.65
2019-01-09T02:17:44.720Z,2.4
2019-01-09T02:17:57.132Z,2.4
2019-01-09T02:18:09.493Z,2.4
2019-01-09T02:18:21.839Z,2.4
2019-01-09T02:18:35.478Z,2.4
2019-01-09T02:18:47.887Z,2.4
2019-01-09T02:19:00.329Z,2.4
2019-01-09T02:19:12.685Z,2.4
2019-01-09T02:19:25.078Z,2.4
2019-01-09T02:19:37.439Z,2.4
2019-01-09T02:19:49.800Z,2.4
2019-01-09T02:20:02.159Z,2.4
2019-01-09T02:20:14.528Z,2.4
2019-01-09T02:20:26.900Z,2.4
2019-01-09T02:20:39.236Z,2.4
2019-01-09T02:20:51.580Z,2.4
2019-01-09T02:21:03.960Z,2.4
2019-01-09T02:21:16.369Z,2.4
2019-01-09T02:21:28.724Z,2.4
2019-01-09T02:21:41.131Z,2.4
2019-01-09T02:21:54.134Z,2.4
2019-01-09T02:22:06.502Z,2.4
2019-01-09T02:22:18.862Z,2.4
2019-01-09T02:22:31.227Z,2.4
2019-01-09T02:22:43.575Z,2.4
2019-01-09T02:22:55.927Z,2.4
2019-01-09T02:23:08.387Z,2.4
2019-01-09T02:23:20.842Z,2.4
2019-01-09T02:23:33.281Z,2.4
2019-01-09T02:23:45.696Z,2.4
2019-01-09T02:23:58.046Z,2.4
2019-01-09T02:24:10.490Z,2.4
2019-01-09T02:24:22.856Z,2.4
2019-01-09T02:24:35.209Z,2.4
2019-01-09T02:24:47.582Z,2.4
2019-01-09T02:25:00.028Z,2.4
2019-01-09T02:25:12.387Z,2.4
2019-01-09T02:25:24.744Z,2.4
2019-01-09T02:25:37.100Z,2.4
2019-01-09T02:25:49.456Z,2.4
2019-01-09T02:26:01.809Z,2.4
2019-01-09T02:26:14.158Z,2.4
2019-01-09T02:26:26.507Z,2.4
2019-01-09T02:26:38.865Z,2.4
2019-01-09T02:26:51.232Z,2.4
2019-01-09T02:27:03.592Z,2.4
2019-01-09T02:27:15.986Z,2.4
2019-01-09T02:27:28.522Z,2.4
2019-01-09T02:27:40.880Z,2.4
2019-01-09T02:27:53.269Z,1
2019-01-09T02:28:05.630Z,1
2019-01-09T02:28:18.011Z,1
2019-01-09T02:28:30.369Z,1
2019-01-09T02:28:42.716Z,1
2019-01-09T02:28:55.144Z,1
2019-01-09T02:29:07.599Z,1
2019-01-09T02:29:19.952Z,1
2019-01-09T02:29:32.415Z,1
2019-01-09T02:29:44.765Z,1
2019-01-09T02:29:57.125Z,1
2019-01-09T02:30:09.544Z,1
2019-01-09T02:30:21.986Z,1
2019-01-09T02:30:34.383Z,1
2019-01-09T02:30:46.769Z,1
2019-01-09T02:30:59.174Z,1
2019-01-09T02:31:11.570Z,1
2019-01-09T02:31:23.922Z,1
2019-01-09T02:31:36.431Z,1
2019-01-09T02:31:48.812Z,1
2019-01-09T02:32:01.286Z,1
2019-01-09T02:32:13.792Z,1
2019-01-09T02:32:26.161Z,1
2019-01-09T02:32:38.531Z,1
2019-01-09T02:32:51.056Z,1
2019-01-09T02:33:03.424Z,1
2019-01-09T02:33:15.782Z,1
2019-01-09T02:33:28.156Z,1
2019-01-09T02:33:40.518Z,1
2019-01-09T02:33:52.888Z,1
2019-01-09T02:34:05.376Z,1
2019-01-09T02:34:17.746Z,1
2019-01-09T02:34:30.139Z,1
2019-01-09T02:34:42.501Z,1
2019-01-09T02:34:54.865Z,1
2019-01-09T02:35:07.250Z,1
2019-01-09T02:35:19.642Z,1
2019-01-09T02:35:32.184Z,1
2019-01-09T02:35:44.577Z,1
2019-01-09T02:35:56.985Z,1
2019-01-09T02:36:18.892Z,1
2019-01-09T02:36:31.531Z,1
2019-01-09T02:36:43.899Z,1
2019-01-09T02:36:56.342Z,1
2019-01-09T02:37:08.759Z,1
2019-01-09T02:37:21.197Z,1
2019-01-09T02:37:33.598Z,1
2019-01-09T02:37:46.037Z,1
2019-01-09T02:37:58.411Z,0.85
2019-01-09T02:38:10.945Z,0.85
2019-01-09T02:38:23.337Z,0.85
2019-01-09T02:38:35.706Z,0.85
2019-01-09T02:38:48.071Z,0.85
2019-01-09T02:39:00.496Z,0.85
2019-01-09T02:39:12.883Z,0.85
2019-01-09T02:39:25.341Z,0.85
2019-01-09T02:39:37.726Z,0.85
2019-01-09T02:39:50.111Z,0.85
2019-01-09T02:40:02.683Z,0.85
2019-01-09T02:40:15.239Z,0.85
2019-01-09T02:40:27.605Z,0.85
2019-01-09T02:40:40.100Z,0.85
2019-01-09T02:40:54.399Z,0.85
2019-01-09T02:41:06.797Z,0.85
2019-01-09T02:41:19.431Z,0.85
2019-01-09T02:41:31.806Z,0.85
2019-01-09T02:41:44.195Z,0.85
2019-01-09T02:41:56.570Z,0.85
2019-01-09T02:42:09.160Z,0.85
2019-01-09T02:42:21.546Z,0.85
2019-01-09T02:42:33.945Z,0.85
2019-01-09T02:42:46.320Z,0.85
2019-01-09T02:42:58.709Z,0.85
2019-01-09T02:43:11.122Z,0.85
2019-01-09T02:43:23.485Z,0.85
2019-01-09T02:43:35.922Z,0.85
2019-01-09T02:43:48.317Z,0.85
2019-01-09T02:44:00.694Z,0.85
2019-01-09T02:44:13.304Z,0.85
2019-01-09T02:44:35.334Z,0.85
2019-01-09T02:44:47.722Z,0.85
2019-01-09T02:45:00.227Z,0.85
2019-01-09T02:45:12.931Z,0.85
2019-01-09T02:45:25.343Z,0.85
2019-01-09T02:45:37.728Z,0.85
2019-01-09T02:45:50.109Z,0.85
2019-01-09T02:46:02.459Z,0.85
2019-01-09T02:46:14.842Z,0.85
2019-01-09T02:46:27.267Z,0.85
2019-01-09T02:46:39.636Z,0.85
2019-01-09T02:46:52.107Z,0.85
2019-01-09T02:47:05.155Z,0.85
2019-01-09T02:47:17.758Z,0.85
2019-01-09T02:47:30.152Z,0.85
2019-01-09T02:47:42.659Z,0.85
2019-01-09T02:47:55.019Z,0.73
2019-01-09T02:48:07.387Z,0.73
2019-01-09T02:48:19.782Z,0.73
2019-01-09T02:48:32.195Z,0.73
2019-01-09T02:48:44.587Z,0.73
2019-01-09T02:48:59.970Z,0.73
2019-01-09T02:49:12.342Z,0.73
2019-01-09T02:49:24.854Z,0.73
2019-01-09T02:49:37.216Z,0.73